createdAt,value
2022-12-24T00:01:37.695Z,28.83
2022-12-24T00:04:06.567Z,27.03
2022-12-24T00:06:36.555Z,29.93
2022-12-24T00:09:05.548Z,21.10
2022-12-24T00:11:34.342Z,24.20
2022-12-24T00:14:03.301Z,17.53
2022-12-24T00:16:32.102Z,29.90
2022-12-24T00:19:00.722Z,18.70
2022-12-24T00:21:29.275Z,31.23
2022-12-24T00:23:59.139Z,32.17
2022-12-24T00:26:27.676Z,30.07
2022-12-24T00:28:56.262Z,25.93
2022-12-24T00:31:25.237Z,28.33
2022-12-24T00:33:53.904Z,25.30
2022-12-24T00:36:24.124Z,22.47
2022-12-24T00:38:52.677Z,33.33
2022-12-24T00:41:29.349Z,46.57
2022-12-24T00:44:00.352Z,27.00
2022-12-24T00:46:31.061Z,30.63
2022-12-24T00:48:59.981Z,40.67
2022-12-24T00:51:29.062Z,32.00
2022-12-24T00:53:57.864Z,27.17
2022-12-24T00:56:28.101Z,29.80
2022-12-24T00:58:56.845Z,26.70
2022-12-24T01:01:25.687Z,34.77
2022-12-24T01:04:15.321Z,31.40
2022-12-24T01:06:42.894Z,21.87
2022-12-24T01:09:11.698Z,33.07
2022-12-24T01:11:41.826Z,28.30
2022-12-24T01:14:10.455Z,30.97
2022-12-24T01:16:39.040Z,25.30
2022-12-24T01:19:07.656Z,34.10
2022-12-24T01:21:36.259Z,26.77
2022-12-24T01:24:05.051Z,30.50
2022-12-24T01:26:33.525Z,37.00
2022-12-24T01:29:03.399Z,30.77
2022-12-24T01:31:31.989Z,32.33
2022-12-24T01:34:00.545Z,29.60
2022-12-24T01:36:29.201Z,32.67
2022-12-24T01:38:57.752Z,30.07
2022-12-24T01:41:44.622Z,22.87
2022-12-24T01:44:35.753Z,30.80
2022-12-24T01:47:09.848Z,32.93
2022-12-24T01:49:40.708Z,24.40
2022-12-24T01:52:12.053Z,32.07
2022-12-24T01:54:44.527Z,39.13
2022-12-24T01:57:18.745Z,36.57
2022-12-24T01:59:52.996Z,44.07
2022-12-24T02:02:22.550Z,24.60
2022-12-24T02:04:57.412Z,29.70
2022-12-24T02:07:26.632Z,40.50
2022-12-24T02:09:59.230Z,29.33
2022-12-24T02:12:31.073Z,35.63
2022-12-24T02:15:01.858Z,35.20
2022-12-24T02:17:35.543Z,26.63
2022-12-24T02:20:31.872Z,15.43
2022-12-24T02:23:17.195Z,31.90
2022-12-24T02:25:59.224Z,23.10
2022-12-24T02:28:47.693Z,30.23
2022-12-24T02:31:24.146Z,29.53
2022-12-24T02:33:58.693Z,29.27
2022-12-24T02:36:33.497Z,32.17
2022-12-24T02:39:05.240Z,27.23
2022-12-24T02:41:51.045Z,23.77
2022-12-24T02:44:22.160Z,34.63
2022-12-24T02:46:53.222Z,23.67
2022-12-24T02:49:21.829Z,29.13
2022-12-24T02:51:50.311Z,39.97
2022-12-24T02:54:19.423Z,34.23
2022-12-24T02:57:00.598Z,36.17
2022-12-24T02:59:47.860Z,35.90
2022-12-24T03:02:26.588Z,33.07
2022-12-24T03:05:04.502Z,28.60
2022-12-24T03:07:38.864Z,21.33
2022-12-24T03:10:19.520Z,24.13
2022-12-24T03:12:51.369Z,24.53
2022-12-24T03:15:21.846Z,17.73
2022-12-24T03:17:56.769Z,43.07
2022-12-24T03:20:29.573Z,29.20
2022-12-24T03:22:58.795Z,25.70
2022-12-24T03:25:29.163Z,37.13
2022-12-24T03:27:59.275Z,25.80
2022-12-24T03:30:27.937Z,35.93
2022-12-24T03:32:57.904Z,24.03
2022-12-24T03:35:26.635Z,28.93
2022-12-24T03:37:55.136Z,30.43
2022-12-24T03:40:23.755Z,20.47
2022-12-24T03:42:52.316Z,34.37
2022-12-24T03:45:20.912Z,41.83
2022-12-24T03:47:49.515Z,37.67
2022-12-24T03:50:20.048Z,36.60
2022-12-24T03:52:48.492Z,35.27
2022-12-24T03:55:17.096Z,36.37
2022-12-24T03:57:45.596Z,40.20
2022-12-24T04:00:14.813Z,27.53
2022-12-24T04:02:43.916Z,34.87
2022-12-24T04:05:16.380Z,43.63
2022-12-24T04:07:46.624Z,22.73
2022-12-24T04:10:15.485Z,32.97
2022-12-24T04:12:44.150Z,17.37
2022-12-24T04:15:12.989Z,43.57
2022-12-24T04:17:41.480Z,30.73
2022-12-24T04:20:11.191Z,32.60
2022-12-24T04:22:39.657Z,30.60
2022-12-24T04:25:11.065Z,35.63
2022-12-24T04:27:39.682Z,33.10
2022-12-24T04:30:09.543Z,41.40
2022-12-24T04:32:38.035Z,27.33
2022-12-24T04:35:07.252Z,42.47
2022-12-24T04:37:36.086Z,30.33
2022-12-24T04:40:05.202Z,18.23
2022-12-24T04:42:35.049Z,17.87
2022-12-24T04:45:03.625Z,37.80
2022-12-24T04:47:32.133Z,30.20
2022-12-24T04:50:01.513Z,27.77
2022-12-24T04:52:30.372Z,35.63
2022-12-24T04:54:58.890Z,31.67
2022-12-24T04:57:27.438Z,14.33
2022-12-24T04:59:57.353Z,36.93
2022-12-24T05:02:26.199Z,16.20
2022-12-24T05:04:54.996Z,25.23
2022-12-24T05:07:23.573Z,21.47
2022-12-24T05:09:52.246Z,27.97
2022-12-24T05:12:20.806Z,28.20
2022-12-24T05:14:49.377Z,23.93
2022-12-24T05:17:19.321Z,24.47
2022-12-24T05:19:47.859Z,20.10
2022-12-24T05:22:33.617Z,34.30
2022-12-24T05:25:16.045Z,34.73
2022-12-24T05:27:50.941Z,24.63
2022-12-24T05:30:20.377Z,25.37
2022-12-24T05:32:50.713Z,17.40
2022-12-24T05:35:19.307Z,36.10
2022-12-24T05:37:47.931Z,22.93
2022-12-24T05:40:16.769Z,25.93
2022-12-24T05:42:45.250Z,37.03
2022-12-24T05:45:13.800Z,34.13
2022-12-24T05:47:43.736Z,36.80
2022-12-24T05:50:13.997Z,28.40
2022-12-24T05:52:42.527Z,27.07
2022-12-24T05:55:11.598Z,47.57
2022-12-24T05:57:41.503Z,37.20
2022-12-24T06:00:11.255Z,40.50
2022-12-24T06:02:42.915Z,40.47
2022-12-24T06:05:12.898Z,34.57
2022-12-24T06:07:41.476Z,31.33
2022-12-24T06:10:10.921Z,37.07
2022-12-24T06:12:39.474Z,38.07
2022-12-24T06:15:09.284Z,27.77
2022-12-24T06:17:38.091Z,42.20
2022-12-24T06:20:07.792Z,42.90
2022-12-24T06:22:37.898Z,50.43
2022-12-24T06:25:07.143Z,40.43
2022-12-24T06:27:35.684Z,35.87
2022-12-24T06:30:04.408Z,43.10
2022-12-24T06:32:33.192Z,37.20
2022-12-24T06:35:01.809Z,42.37
2022-12-24T06:37:30.283Z,52.57
2022-12-24T06:40:00.247Z,42.87
2022-12-24T06:42:28.866Z,37.77
2022-12-24T06:45:00.904Z,42.50
2022-12-24T06:47:32.407Z,40.97
2022-12-24T06:50:00.899Z,44.07
2022-12-24T06:52:29.436Z,50.20
2022-12-24T06:54:59.329Z,48.03
2022-12-24T06:57:27.915Z,31.83
2022-12-24T06:59:56.411Z,40.97
2022-12-24T07:02:25.160Z,47.60
2022-12-24T07:04:53.867Z,41.20
2022-12-24T07:07:22.459Z,34.67
2022-12-24T07:09:51.010Z,30.17
2022-12-24T07:12:20.889Z,37.47
2022-12-24T07:14:49.749Z,36.70
2022-12-24T07:17:18.613Z,39.50
2022-12-24T07:19:47.341Z,46.60
2022-12-24T07:22:16.114Z,53.23
2022-12-24T07:24:44.863Z,38.20
2022-12-24T07:27:14.343Z,36.07
2022-12-24T07:29:44.347Z,37.00
2022-12-24T07:32:12.921Z,30.80
2022-12-24T07:34:41.454Z,49.00
2022-12-24T07:37:10.085Z,37.83
2022-12-24T07:39:38.657Z,32.23
2022-12-24T07:42:08.113Z,33.20
2022-12-24T07:44:37.851Z,35.20
2022-12-24T07:47:08.130Z,40.77
2022-12-24T07:49:37.433Z,40.90
2022-12-24T07:52:06.392Z,36.93
2022-12-24T07:54:35.099Z,50.40
2022-12-24T07:57:03.612Z,33.23
2022-12-24T07:59:32.185Z,34.77
2022-12-24T08:02:00.920Z,37.43
2022-12-24T08:04:33.593Z,43.73
2022-12-24T08:07:02.202Z,34.87
2022-12-24T08:09:32.799Z,42.07
2022-12-24T08:12:02.401Z,27.93
2022-12-24T08:14:31.098Z,49.67
2022-12-24T08:16:59.774Z,41.00
2022-12-24T08:19:31.197Z,37.97
2022-12-24T08:22:01.163Z,30.30
2022-12-24T08:24:29.637Z,36.77
2022-12-24T08:26:58.403Z,32.93
2022-12-24T08:29:27.017Z,25.73
2022-12-24T08:31:55.601Z,42.80
2022-12-24T08:34:24.433Z,25.10
2022-12-24T08:36:52.969Z,36.80
2022-12-24T08:39:23.028Z,32.43
2022-12-24T08:41:51.620Z,37.97
2022-12-24T08:44:20.182Z,31.53
2022-12-24T08:46:48.673Z,38.77
2022-12-24T08:49:17.185Z,37.10
2022-12-24T08:51:45.718Z,45.17
2022-12-24T08:54:14.376Z,41.80
2022-12-24T08:56:44.266Z,32.30
2022-12-24T08:59:13.120Z,24.73
2022-12-24T09:01:41.813Z,30.73
2022-12-24T09:04:10.655Z,21.93
2022-12-24T09:06:39.085Z,41.83
2022-12-24T09:09:08.626Z,28.80
2022-12-24T09:11:37.200Z,39.87
2022-12-24T09:14:07.128Z,30.50
2022-12-24T09:16:35.708Z,34.37
2022-12-24T09:19:04.329Z,29.47
2022-12-24T09:21:32.920Z,38.97
2022-12-24T09:24:01.480Z,29.87
2022-12-24T09:26:31.945Z,39.20
2022-12-24T09:29:01.553Z,38.43
2022-12-24T09:31:31.498Z,36.17
2022-12-24T09:34:00.560Z,24.73
2022-12-24T09:36:29.191Z,34.43
2022-12-24T09:38:57.684Z,33.23
2022-12-24T09:41:40.259Z,34.27
2022-12-24T09:44:21.931Z,47.60
2022-12-24T09:46:53.542Z,29.47
2022-12-24T09:49:26.157Z,25.73
2022-12-24T09:52:00.159Z,28.17
2022-12-24T09:54:32.993Z,27.40
2022-12-24T09:57:07.903Z,32.30
2022-12-24T09:59:43.346Z,28.40
2022-12-24T10:02:16.918Z,24.60
2022-12-24T10:04:47.064Z,36.23
2022-12-24T10:07:30.930Z,22.93
2022-12-24T10:10:10.693Z,42.33
2022-12-24T10:12:49.581Z,30.13
2022-12-24T10:15:25.459Z,32.40
2022-12-24T10:18:07.266Z,31.97
2022-12-24T10:20:44.932Z,26.93
2022-12-24T10:23:20.671Z,26.00
2022-12-24T10:25:54.760Z,34.10
2022-12-24T10:28:30.925Z,34.60
2022-12-24T10:31:04.399Z,38.17
2022-12-24T10:33:39.297Z,28.40
2022-12-24T10:36:12.700Z,36.80
2022-12-24T10:38:41.203Z,39.43
2022-12-24T10:41:10.434Z,22.73
2022-12-24T10:43:42.323Z,21.93
2022-12-24T10:46:19.619Z,38.07
2022-12-24T10:48:54.483Z,33.53
2022-12-24T10:51:31.552Z,26.70
2022-12-24T10:54:07.880Z,33.03
2022-12-24T10:56:42.303Z,20.27
2022-12-24T10:59:25.057Z,38.60
2022-12-24T11:01:54.568Z,32.37
2022-12-24T11:04:26.615Z,29.20
2022-12-24T11:06:57.191Z,34.93
2022-12-24T11:09:28.584Z,29.37
2022-12-24T11:12:00.378Z,29.87
2022-12-24T11:14:37.413Z,31.57
2022-12-24T11:17:06.792Z,26.07
2022-12-24T11:19:40.057Z,34.93
2022-12-24T11:22:18.600Z,28.13
2022-12-24T11:24:50.331Z,21.30
2022-12-24T11:27:44.425Z,22.13
2022-12-24T11:30:29.922Z,24.80
2022-12-24T11:33:21.615Z,32.33
2022-12-24T11:35:55.792Z,21.93
2022-12-24T11:38:26.733Z,20.53
2022-12-24T11:41:11.311Z,25.20
2022-12-24T11:43:47.254Z,23.90
2022-12-24T11:46:33.024Z,26.87
2022-12-24T11:49:26.829Z,20.63
2022-12-24T11:52:20.544Z,25.20
2022-12-24T11:55:19.733Z,21.70
2022-12-24T11:58:02.152Z,26.53
2022-12-24T12:00:31.029Z,21.63
2022-12-24T12:03:02.949Z,16.77
2022-12-24T12:05:35.695Z,29.30
2022-12-24T12:08:15.300Z,25.07
2022-12-24T12:10:45.105Z,33.83
2022-12-24T12:13:16.470Z,17.10
2022-12-24T12:15:50.617Z,29.13
2022-12-24T12:18:22.926Z,31.07
2022-12-24T12:20:57.459Z,27.20
2022-12-24T12:23:31.059Z,29.00
2022-12-24T12:26:02.724Z,22.87
2022-12-24T12:28:37.045Z,19.63
2022-12-24T12:31:18.379Z,22.73
2022-12-24T12:33:51.103Z,19.30
2022-12-24T12:36:24.587Z,20.23
2022-12-24T12:38:54.470Z,23.17
2022-12-24T12:41:40.380Z,19.37
2022-12-24T12:44:30.958Z,19.37
2022-12-24T12:47:22.904Z,20.13
2022-12-24T12:49:59.643Z,24.60
2022-12-24T12:52:42.898Z,28.30
2022-12-24T12:55:28.397Z,18.90
2022-12-24T12:58:04.422Z,20.03
2022-12-24T13:00:38.524Z,23.43
2022-12-24T13:03:36.188Z,29.93
2022-12-24T13:06:36.481Z,21.33
2022-12-24T13:09:31.659Z,18.70
2022-12-24T13:12:14.570Z,15.17
2022-12-24T13:15:01.846Z,21.93
2022-12-24T13:17:53.129Z,21.43
2022-12-24T13:20:26.967Z,21.00
2022-12-24T13:22:59.830Z,19.23
2022-12-24T13:25:39.223Z,16.97
2022-12-24T13:31:31.797Z,17.33
2022-12-24T13:34:02.874Z,15.67
2022-12-24T13:37:06.093Z,28.60
2022-12-24T13:40:10.763Z,15.83
2022-12-24T13:42:53.283Z,17.77
2022-12-24T13:45:48.029Z,24.57
2022-12-24T13:48:34.183Z,15.33
2022-12-24T13:51:20.146Z,22.93
2022-12-24T13:53:49.702Z,19.53
2022-12-24T13:56:26.207Z,20.37
2022-12-24T13:59:10.370Z,30.47
2022-12-24T14:01:41.747Z,26.07
2022-12-24T14:04:25.198Z,38.70
2022-12-24T14:06:55.374Z,28.03
2022-12-24T14:09:26.408Z,29.40
2022-12-24T14:12:30.372Z,20.37
2022-12-24T14:14:58.817Z,21.47
2022-12-24T14:17:29.811Z,19.40
2022-12-24T14:20:02.023Z,30.43
2022-12-24T14:22:34.230Z,10.23
2022-12-24T14:25:04.259Z,21.77
2022-12-24T14:27:40.533Z,14.10
2022-12-24T14:30:17.028Z,25.23
2022-12-24T14:32:46.328Z,26.43
2022-12-24T14:35:19.520Z,24.80
2022-12-24T14:37:50.758Z,16.90
2022-12-24T14:40:22.386Z,16.83
2022-12-24T14:42:59.948Z,17.07
2022-12-24T14:45:34.591Z,22.97
2022-12-24T14:48:12.361Z,27.30
2022-12-24T14:51:02.852Z,26.50
2022-12-24T14:53:49.289Z,21.90
2022-12-24T14:56:19.824Z,21.03
2022-12-24T14:58:48.958Z,23.27
2022-12-24T15:01:23.423Z,26.20
2022-12-24T15:04:02.553Z,23.57
2022-12-24T15:06:35.964Z,22.70
2022-12-24T15:09:04.944Z,23.40
2022-12-24T15:11:33.769Z,19.90
2022-12-24T15:14:02.312Z,24.17
2022-12-24T15:16:33.879Z,28.43
2022-12-24T15:19:05.332Z,22.20
2022-12-24T15:21:41.165Z,23.27
2022-12-24T15:24:26.244Z,20.57
2022-12-24T15:26:55.474Z,16.93
2022-12-24T15:29:25.996Z,21.47
2022-12-24T15:31:55.503Z,24.33
2022-12-24T15:34:29.929Z,27.53
2022-12-24T15:37:05.830Z,23.43
2022-12-24T15:39:35.105Z,28.27
2022-12-24T15:42:16.011Z,39.33
2022-12-24T15:44:56.186Z,29.17
2022-12-24T15:47:29.801Z,29.70
2022-12-24T15:49:58.392Z,29.03
2022-12-24T15:52:28.369Z,20.97
2022-12-24T15:54:58.359Z,27.93
2022-12-24T15:57:31.558Z,24.03
2022-12-24T16:00:03.705Z,22.40
2022-12-24T16:02:39.400Z,35.20
2022-12-24T16:05:36.792Z,34.00
2022-12-24T16:08:23.163Z,25.07
2022-12-24T16:10:54.690Z,29.80
2022-12-24T16:13:28.800Z,24.30
2022-12-24T16:16:00.333Z,36.10
2022-12-24T16:18:34.543Z,22.27
2022-12-24T16:21:03.962Z,27.10
2022-12-24T16:23:39.019Z,34.77
2022-12-24T16:26:07.545Z,25.37
2022-12-24T16:28:35.985Z,24.83
2022-12-24T16:31:04.659Z,19.77
2022-12-24T16:33:33.436Z,28.30
2022-12-24T16:36:01.973Z,26.27
2022-12-24T16:38:50.534Z,34.37
2022-12-24T16:41:20.361Z,35.70
2022-12-24T16:43:50.464Z,35.43
2022-12-24T16:46:19.433Z,32.27
2022-12-24T16:48:49.562Z,39.50
2022-12-24T16:51:18.082Z,44.53
2022-12-24T16:53:46.590Z,44.17
2022-12-24T16:56:16.863Z,38.20
2022-12-24T16:58:46.689Z,36.43
2022-12-24T17:01:15.303Z,30.33
2022-12-24T17:03:43.943Z,36.53
2022-12-24T17:06:12.410Z,27.30
2022-12-24T17:08:40.874Z,50.60
2022-12-24T17:11:09.385Z,42.40
2022-12-24T17:13:37.976Z,40.27
2022-12-24T17:16:08.628Z,33.83
2022-12-24T17:18:37.195Z,36.33
2022-12-24T17:21:06.917Z,35.80
2022-12-24T17:23:35.423Z,39.90
2022-12-24T17:26:10.690Z,42.17
2022-12-24T17:28:42.213Z,46.80
2022-12-24T17:31:13.051Z,45.97
2022-12-24T17:33:41.608Z,42.60
2022-12-24T17:36:10.672Z,53.90
2022-12-24T17:38:39.251Z,36.83
2022-12-24T17:41:09.603Z,46.03
2022-12-24T17:43:38.767Z,35.63
2022-12-24T17:46:08.366Z,36.83
2022-12-24T17:48:38.455Z,38.47
2022-12-24T17:51:08.455Z,33.63
2022-12-24T17:53:38.705Z,42.10
2022-12-24T17:56:10.510Z,49.17
2022-12-24T17:58:39.676Z,59.40
2022-12-24T18:01:11.693Z,41.87
2022-12-24T18:03:41.826Z,40.07
2022-12-24T18:06:12.295Z,45.30
2022-12-24T18:08:41.777Z,57.50
2022-12-24T18:11:14.235Z,37.77
2022-12-24T18:13:43.712Z,58.53
2022-12-24T18:16:17.112Z,40.07
2022-12-24T18:18:47.589Z,50.03
2022-12-24T18:21:16.830Z,44.67
2022-12-24T18:23:47.183Z,59.10
2022-12-24T18:26:17.178Z,45.47
2022-12-24T18:28:45.657Z,46.30
2022-12-24T18:31:16.601Z,46.67
2022-12-24T18:33:47.115Z,41.83
2022-12-24T18:36:15.633Z,36.43
2022-12-24T18:38:44.229Z,44.63
2022-12-24T18:41:15.063Z,50.30
2022-12-24T18:43:43.530Z,50.43
2022-12-24T18:46:14.045Z,45.63
2022-12-24T18:48:42.891Z,38.33
2022-12-24T18:51:13.011Z,46.57
2022-12-24T18:53:41.522Z,44.03
2022-12-24T18:56:15.766Z,55.03
2022-12-24T18:58:44.652Z,64.23
2022-12-24T19:01:15.179Z,43.03
2022-12-24T19:03:43.904Z,58.07
2022-12-24T19:06:13.999Z,71.57
2022-12-24T19:09:00.364Z,43.53
2022-12-24T19:11:31.804Z,48.37
2022-12-24T19:14:01.086Z,53.23
2022-12-24T19:16:31.742Z,68.87
2022-12-24T19:19:00.436Z,49.13
2022-12-24T19:21:30.291Z,32.90
2022-12-24T19:23:58.987Z,28.43
2022-12-24T19:26:27.677Z,46.57
2022-12-24T19:28:56.722Z,46.13
2022-12-24T19:31:26.554Z,46.40
2022-12-24T19:33:56.899Z,50.00
2022-12-24T19:36:26.839Z,52.07
2022-12-24T19:38:57.397Z,50.40
2022-12-24T19:41:28.199Z,54.33
2022-12-24T19:43:57.919Z,51.97
2022-12-24T19:46:28.736Z,47.30
2022-12-24T19:48:59.374Z,57.73
2022-12-24T19:51:29.714Z,36.00
2022-12-24T19:54:01.169Z,62.20
2022-12-24T19:56:32.022Z,60.60
2022-12-24T19:59:01.807Z,59.70
2022-12-24T20:01:32.425Z,52.90
2022-12-24T20:04:01.885Z,55.60
2022-12-24T20:06:32.554Z,69.93
2022-12-24T20:09:04.876Z,53.03
2022-12-24T20:11:33.800Z,46.63
2022-12-24T20:14:05.076Z,49.53
2022-12-24T20:16:34.190Z,44.27
2022-12-24T20:19:04.672Z,43.73
2022-12-24T20:21:33.724Z,41.37
2022-12-24T20:24:03.570Z,44.90
2022-12-24T20:26:32.153Z,52.07
2022-12-24T20:29:04.405Z,49.67
2022-12-24T20:31:33.426Z,59.97
2022-12-24T20:34:03.572Z,41.03
2022-12-24T20:36:32.836Z,48.63
2022-12-24T20:39:03.010Z,45.50
2022-12-24T20:41:32.433Z,37.90
2022-12-24T20:44:01.740Z,38.63
2022-12-24T20:46:31.055Z,53.40
2022-12-24T20:48:59.863Z,41.47
2022-12-24T20:51:29.523Z,53.40
2022-12-24T20:53:59.878Z,44.30
2022-12-24T20:56:30.722Z,43.27
2022-12-24T20:59:00.580Z,48.00
2022-12-24T21:01:29.944Z,35.97
2022-12-24T21:04:04.408Z,44.43
2022-12-24T21:06:34.218Z,35.20
2022-12-24T21:09:03.220Z,49.67
2022-12-24T21:11:51.110Z,54.70
2022-12-24T21:14:23.259Z,41.47
2022-12-24T21:16:52.658Z,38.93
2022-12-24T21:19:24.030Z,43.93
2022-12-24T21:21:52.757Z,51.53
2022-12-24T21:24:21.238Z,58.40
2022-12-24T21:26:51.199Z,48.63
2022-12-24T21:29:19.701Z,42.93
2022-12-24T21:31:48.296Z,46.10
2022-12-24T21:34:16.780Z,43.87
2022-12-24T21:36:46.403Z,43.47
2022-12-24T21:39:15.164Z,43.80
2022-12-24T21:41:43.611Z,56.63
2022-12-24T21:44:13.427Z,45.63
2022-12-24T21:46:41.866Z,39.63
2022-12-24T21:49:29.216Z,41.33
2022-12-24T21:51:59.099Z,44.77
2022-12-24T21:54:31.530Z,57.63
2022-12-24T21:57:19.488Z,42.20
2022-12-24T21:59:50.565Z,47.10
2022-12-24T22:02:20.202Z,42.67
2022-12-24T22:04:49.030Z,45.60
2022-12-24T22:07:39.740Z,33.17
2022-12-24T22:10:26.837Z,38.77
2022-12-24T22:12:56.299Z,32.10
2022-12-24T22:15:27.172Z,57.90
2022-12-24T22:17:55.620Z,50.47
2022-12-24T22:20:24.258Z,37.93
2022-12-24T22:22:52.953Z,35.07
2022-12-24T22:25:21.424Z,34.90
2022-12-24T22:27:49.863Z,37.47
2022-12-24T22:30:18.555Z,39.47
2022-12-24T22:32:48.487Z,56.77
2022-12-24T22:35:17.280Z,64.90
2022-12-24T22:37:45.731Z,60.67
2022-12-24T22:40:14.364Z,63.70
2022-12-24T22:42:42.910Z,51.40
2022-12-24T22:45:18.376Z,37.97
2022-12-24T22:47:49.982Z,64.47
2022-12-24T22:50:18.645Z,51.83
2022-12-24T22:52:47.130Z,59.43
2022-12-24T22:55:15.583Z,42.73
2022-12-24T22:57:44.085Z,49.73
2022-12-24T23:00:16.581Z,53.67
2022-12-24T23:02:45.191Z,34.67
2022-12-24T23:05:16.371Z,31.37
2022-12-24T23:07:44.872Z,42.33
2022-12-24T23:10:13.311Z,36.50
2022-12-24T23:12:59.127Z,40.20
2022-12-24T23:15:27.618Z,37.23
2022-12-24T23:17:56.062Z,31.33
2022-12-24T23:20:25.862Z,46.43
2022-12-24T23:22:54.308Z,37.63
2022-12-24T23:25:22.762Z,44.23
2022-12-24T23:27:51.234Z,32.63
2022-12-24T23:30:19.939Z,37.13
2022-12-24T23:32:48.444Z,47.70
2022-12-24T23:35:17.115Z,42.10
2022-12-24T23:37:46.953Z,29.80
2022-12-24T23:40:15.609Z,43.80
2022-12-24T23:42:44.301Z,44.20
2022-12-24T23:45:13.307Z,43.80
2022-12-24T23:47:41.747Z,39.80
2022-12-24T23:50:12.144Z,41.90
2022-12-24T23:52:41.489Z,33.07
2022-12-24T23:55:11.429Z,42.47
2022-12-24T23:57:39.908Z,45.13
